createdAt,value
2022-08-04T00:00:02.445Z,3.50
2022-08-04T00:00:40.423Z,3.42
2022-08-04T00:01:22.512Z,3.63
2022-08-04T00:02:02.957Z,3.00
2022-08-04T00:02:47.313Z,3.58
2022-08-04T00:03:23.735Z,3.00
2022-08-04T00:04:01.840Z,3.08
2022-08-04T00:04:42.433Z,3.13
2022-08-04T00:05:27.379Z,2.92
2022-08-04T00:06:04.338Z,3.20
2022-08-04T00:06:53.717Z,3.40
2022-08-04T00:07:45.045Z,2.97
2022-08-04T00:08:25.769Z,2.58
2022-08-04T00:09:03.319Z,3.20
2022-08-04T00:09:41.514Z,2.90
2022-08-04T00:10:16.953Z,3.15
2022-08-04T00:10:54.518Z,2.85
2022-08-04T00:11:31.235Z,3.05
2022-08-04T00:12:06.300Z,2.88
2022-08-04T00:12:45.097Z,3.22
2022-08-04T00:13:22.069Z,2.90
2022-08-04T00:14:03.638Z,3.25
2022-08-04T00:14:41.485Z,3.15
2022-08-04T00:15:17.504Z,3.65
2022-08-04T00:15:52.997Z,3.05
2022-08-04T00:16:31.378Z,3.38
2022-08-04T00:17:09.123Z,3.40
2022-08-04T00:17:45.306Z,3.20
2022-08-04T00:18:20.987Z,3.10
2022-08-04T00:18:58.347Z,3.47
2022-08-04T00:19:35.758Z,2.40
2022-08-04T00:20:10.233Z,3.20
2022-08-04T00:20:43.896Z,3.17
2022-08-04T00:21:16.417Z,3.33
2022-08-04T00:21:55.450Z,4.15
2022-08-04T00:22:30.861Z,3.00
2022-08-04T00:23:03.768Z,3.22
2022-08-04T00:24:11.996Z,2.45
2022-08-04T00:24:31.996Z,2.42
2022-08-04T00:25:05.629Z,2.72
2022-08-04T00:25:40.543Z,2.67
2022-08-04T00:26:13.407Z,3.00
2022-08-04T00:26:46.124Z,3.00
2022-08-04T00:27:18.307Z,2.80
2022-08-04T00:27:51.938Z,3.30
2022-08-04T00:28:24.921Z,2.85
2022-08-04T00:28:57.965Z,2.88
2022-08-04T00:29:31.018Z,3.40
2022-08-04T00:30:04.556Z,3.45
2022-08-04T00:30:37.679Z,3.00
2022-08-04T00:31:11.260Z,2.80
2022-08-04T00:31:54.981Z,3.80
2022-08-04T00:32:34.351Z,2.90
2022-08-04T00:33:07.111Z,3.15
2022-08-04T00:33:39.195Z,3.20
2022-08-04T00:34:16.684Z,3.30
2022-08-04T00:34:48.630Z,2.67
2022-08-04T00:35:26.192Z,3.30
2022-08-04T00:36:00.770Z,3.40
2022-08-04T00:36:33.257Z,2.75
2022-08-04T00:37:07.850Z,3.03
2022-08-04T00:37:40.182Z,3.05
2022-08-04T00:38:15.219Z,3.05
2022-08-04T00:38:48.825Z,3.33
2022-08-04T00:39:21.357Z,3.30
2022-08-04T00:39:54.916Z,2.72
2022-08-04T00:40:37.027Z,2.80
2022-08-04T00:41:18.718Z,3.17
2022-08-04T00:42:07.853Z,3.50
2022-08-04T00:42:58.293Z,3.00
2022-08-04T00:43:34.241Z,3.20
2022-08-04T00:44:23.210Z,3.22
2022-08-04T00:45:13.011Z,2.65
2022-08-04T00:46:17.531Z,2.88
2022-08-04T00:47:05.262Z,3.50
2022-08-04T00:47:49.957Z,2.65
2022-08-04T00:48:38.109Z,2.90
2022-08-04T00:49:30.777Z,2.97
2022-08-04T00:50:09.166Z,3.00
2022-08-04T00:50:45.477Z,3.17
2022-08-04T00:51:28.248Z,3.15
2022-08-04T00:52:31.781Z,3.20
2022-08-04T00:53:09.235Z,3.00
2022-08-04T00:53:54.292Z,2.85
2022-08-04T00:54:34.389Z,2.85
2022-08-04T00:55:40.648Z,2.90
2022-08-04T00:56:30.748Z,2.80
2022-08-04T00:57:33.555Z,2.97
2022-08-04T00:58:22.639Z,2.65
2022-08-04T00:59:10.938Z,2.40
2022-08-04T00:59:57.696Z,3.28
2022-08-04T01:00:40.121Z,2.90
2022-08-04T01:01:22.297Z,2.85
2022-08-04T01:02:00.353Z,2.88
2022-08-04T01:02:39.313Z,3.33
2022-08-04T01:03:18.636Z,3.28
2022-08-04T01:04:02.444Z,2.88
2022-08-04T01:04:46.941Z,3.03
2022-08-04T01:05:28.472Z,2.80
2022-08-04T01:06:17.258Z,2.70
2022-08-04T01:07:06.926Z,3.20
2022-08-04T01:08:15.354Z,2.90
2022-08-04T01:09:02.312Z,3.08
2022-08-04T01:09:43.988Z,2.95
2022-08-04T01:10:27.361Z,2.85
2022-08-04T01:11:04.823Z,2.92
2022-08-04T01:11:56.846Z,2.83
2022-08-04T01:12:54.600Z,2.65
2022-08-04T01:13:58.164Z,2.95
2022-08-04T01:14:44.116Z,3.35
2022-08-04T01:15:23.054Z,2.40
2022-08-04T01:16:05.200Z,2.63
2022-08-04T01:16:45.505Z,2.58
2022-08-04T01:17:21.476Z,3.30
2022-08-04T01:18:06.225Z,3.03
2022-08-04T01:18:58.925Z,2.80
2022-08-04T01:19:53.814Z,3.30
2022-08-04T01:20:29.838Z,3.17
2022-08-04T01:21:18.150Z,3.05
2022-08-04T01:22:17.770Z,2.70
2022-08-04T01:23:17.333Z,2.90
2022-08-04T01:24:27.795Z,3.58
2022-08-04T01:25:11.052Z,2.88
2022-08-04T01:26:43.700Z,2.75
2022-08-04T01:27:07.003Z,2.60
2022-08-04T01:28:01.273Z,2.85
2022-08-04T01:29:09.467Z,2.95
2022-08-04T01:29:50.079Z,2.72
2022-08-04T01:30:21.943Z,3.05
2022-08-04T01:30:58.172Z,3.88
2022-08-04T01:31:40.178Z,2.88
2022-08-04T01:32:20.952Z,2.78
2022-08-04T01:33:04.019Z,2.83
2022-08-04T01:34:04.150Z,3.35
2022-08-04T01:34:42.640Z,2.80
2022-08-04T01:35:22.073Z,2.60
2022-08-04T01:36:12.885Z,3.67
2022-08-04T01:36:50.113Z,3.63
2022-08-04T01:37:32.569Z,3.10
2022-08-04T01:38:20.111Z,2.92
2022-08-04T01:38:55.104Z,3.22
2022-08-04T01:39:40.998Z,2.50
2022-08-04T01:40:16.145Z,2.85
2022-08-04T01:40:51.880Z,2.78
2022-08-04T01:41:32.618Z,3.20
2022-08-04T01:42:07.469Z,2.75
2022-08-04T01:42:43.041Z,2.70
2022-08-04T01:43:16.922Z,2.70
2022-08-04T01:43:49.823Z,2.60
2022-08-04T01:44:23.636Z,2.70
2022-08-04T01:45:01.373Z,3.15
2022-08-04T01:45:36.583Z,3.08
2022-08-04T01:46:11.886Z,2.90
2022-08-04T01:46:47.229Z,2.92
2022-08-04T01:47:21.537Z,2.90
2022-08-04T01:47:56.747Z,2.95
2022-08-04T01:48:29.412Z,2.92
2022-08-04T01:49:02.723Z,2.63
2022-08-04T01:49:40.005Z,2.80
2022-08-04T01:50:14.170Z,2.92
2022-08-04T01:50:47.805Z,3.05
2022-08-04T01:51:25.628Z,3.45
2022-08-04T01:51:58.303Z,2.65
2022-08-04T01:52:33.223Z,2.55
2022-08-04T01:53:05.153Z,2.85
2022-08-04T01:53:39.410Z,3.28
2022-08-04T01:54:13.638Z,2.63
2022-08-04T01:54:48.004Z,3.05
2022-08-04T01:55:21.795Z,3.00
2022-08-04T01:55:55.781Z,2.60
2022-08-04T01:56:30.797Z,3.83
2022-08-04T01:57:37.648Z,2.70
2022-08-04T01:58:00.157Z,2.80
2022-08-04T01:58:34.718Z,2.78
2022-08-04T01:59:07.038Z,2.72
2022-08-04T01:59:39.419Z,3.30
2022-08-04T02:00:15.544Z,2.90
2022-08-04T02:00:58.234Z,2.85
2022-08-04T02:01:35.402Z,3.30
2022-08-04T02:02:08.898Z,3.30
2022-08-04T02:02:42.407Z,2.72
2022-08-04T02:03:14.309Z,2.90
2022-08-04T02:04:20.160Z,3.33
2022-08-04T02:04:39.070Z,3.00
2022-08-04T02:05:11.640Z,3.58
2022-08-04T02:06:03.317Z,3.05
2022-08-04T02:06:46.672Z,3.15
2022-08-04T02:07:33.531Z,3.55
2022-08-04T02:08:13.327Z,3.15
2022-08-04T02:08:54.539Z,3.38
2022-08-04T02:09:54.350Z,3.55
2022-08-04T02:10:29.950Z,3.38
2022-08-04T02:11:09.202Z,3.45
2022-08-04T02:11:46.496Z,2.80
2022-08-04T02:12:26.924Z,3.50
2022-08-04T02:13:10.619Z,3.53
2022-08-04T02:13:51.174Z,2.85
2022-08-04T02:14:45.350Z,2.60
2022-08-04T02:15:31.682Z,3.08
2022-08-04T02:16:06.918Z,3.50
2022-08-04T02:16:45.398Z,3.20
2022-08-04T02:17:30.214Z,3.13
2022-08-04T02:18:05.713Z,3.30
2022-08-04T02:18:52.514Z,4.10
2022-08-04T02:19:30.501Z,3.25
2022-08-04T02:20:08.420Z,3.30
2022-08-04T02:20:44.554Z,4.00
2022-08-04T02:21:20.197Z,3.13
2022-08-04T02:21:58.509Z,3.60
2022-08-04T02:22:33.036Z,3.40
2022-08-04T02:23:07.713Z,3.60
2022-08-04T02:23:41.637Z,3.65
2022-08-04T02:24:18.632Z,3.70
2022-08-04T02:24:54.014Z,3.80
2022-08-04T02:25:28.604Z,3.00
2022-08-04T02:26:03.542Z,3.75
2022-08-04T02:26:36.977Z,3.00
2022-08-04T02:27:10.558Z,3.78
2022-08-04T02:28:11.202Z,3.53
2022-08-04T02:28:47.517Z,3.40
2022-08-04T02:29:30.401Z,3.58
2022-08-04T02:30:05.598Z,4.15
2022-08-04T02:30:44.141Z,3.80
2022-08-04T02:31:28.791Z,3.83
2022-08-04T02:32:05.313Z,3.88
2022-08-04T02:32:39.825Z,3.47
2022-08-04T02:33:19.323Z,3.22
2022-08-04T02:33:58.735Z,3.28
2022-08-04T02:34:40.031Z,3.90
2022-08-04T02:35:16.093Z,3.33
2022-08-04T02:35:53.937Z,3.40
2022-08-04T02:36:31.994Z,3.20
2022-08-04T02:37:05.058Z,3.45
2022-08-04T02:37:37.480Z,3.22
2022-08-04T02:38:18.257Z,3.65
2022-08-04T02:39:00.173Z,3.40
2022-08-04T02:39:47.721Z,3.45
2022-08-04T02:40:21.957Z,3.38
2022-08-04T02:40:56.577Z,3.47
2022-08-04T02:41:34.540Z,3.30
2022-08-04T02:42:06.769Z,3.67
2022-08-04T02:42:43.450Z,3.78
2022-08-04T02:43:51.758Z,3.38
2022-08-04T02:44:13.299Z,3.63
2022-08-04T02:44:51.288Z,3.45
2022-08-04T02:45:25.385Z,4.03
2022-08-04T02:46:00.794Z,3.05
2022-08-04T02:46:35.752Z,3.90
2022-08-04T02:47:09.759Z,3.40
2022-08-04T02:48:29.657Z,3.08
2022-08-04T02:48:37.360Z,3.38
2022-08-04T02:49:10.549Z,3.50
2022-08-04T02:49:45.541Z,3.50
2022-08-04T02:50:28.465Z,3.25
2022-08-04T02:51:03.095Z,3.00
2022-08-04T02:51:37.574Z,3.25
2022-08-04T02:52:10.914Z,3.83
2022-08-04T02:52:44.280Z,3.47
2022-08-04T02:53:18.326Z,3.40
2022-08-04T02:53:54.755Z,3.80
2022-08-04T02:54:31.837Z,3.40
2022-08-04T02:55:10.478Z,3.85
2022-08-04T02:55:50.732Z,3.70
2022-08-04T02:56:26.384Z,3.20
2022-08-04T02:57:00.742Z,3.33
2022-08-04T02:57:35.596Z,3.70
2022-08-04T02:58:10.140Z,3.45
2022-08-04T02:58:46.484Z,3.03
2022-08-04T02:59:20.581Z,3.47
2022-08-04T03:00:07.533Z,3.00
2022-08-04T03:00:39.660Z,3.47
2022-08-04T03:01:12.915Z,3.75
2022-08-04T03:01:57.859Z,3.55
2022-08-04T03:02:39.569Z,3.17
2022-08-04T03:03:22.440Z,3.40
2022-08-04T03:04:08.324Z,5.18
2022-08-04T03:04:51.120Z,3.97
2022-08-04T03:05:28.834Z,3.80
2022-08-04T03:06:39.287Z,3.60
2022-08-04T03:07:40.203Z,3.40
2022-08-04T03:08:40.744Z,3.60
2022-08-04T03:09:36.781Z,3.60
2022-08-04T03:10:44.126Z,3.40
2022-08-04T03:11:46.793Z,3.35
2022-08-04T03:12:59.048Z,3.45
2022-08-04T03:13:44.969Z,3.30
2022-08-04T03:14:44.404Z,3.30
2022-08-04T03:15:36.014Z,2.92
2022-08-04T03:16:47.116Z,3.45
2022-08-04T03:17:53.293Z,3.45
2022-08-04T03:19:05.186Z,3.53
2022-08-04T03:20:04.911Z,3.15
2022-08-04T03:21:15.524Z,3.63
2022-08-04T03:22:20.514Z,3.17
2022-08-04T03:23:25.030Z,3.80
2022-08-04T03:24:29.221Z,3.20
2022-08-04T03:25:55.843Z,3.42
2022-08-04T03:27:05.508Z,3.13
2022-08-04T03:28:11.942Z,3.83
2022-08-04T03:29:36.211Z,3.30
2022-08-04T03:30:13.901Z,3.55
2022-08-04T03:31:02.178Z,3.65
2022-08-04T03:32:14.450Z,3.60
2022-08-04T03:33:23.607Z,3.60
2022-08-04T03:34:15.549Z,3.20
2022-08-04T03:35:02.794Z,3.22
2022-08-04T03:36:13.006Z,3.10
2022-08-04T03:37:29.931Z,4.07
2022-08-04T03:38:56.871Z,3.70
2022-08-04T03:39:52.314Z,3.75
2022-08-04T03:41:02.848Z,3.60
2022-08-04T03:42:13.142Z,4.18
2022-08-04T03:43:57.372Z,4.05
2022-08-04T03:45:23.730Z,3.60
2022-08-04T03:46:42.628Z,3.20
2022-08-04T03:47:42.303Z,3.08
2022-08-04T03:48:50.806Z,3.53
2022-08-04T03:50:01.794Z,3.85
2022-08-04T03:51:35.475Z,3.92
2022-08-04T03:52:32.074Z,3.75
2022-08-04T03:53:22.570Z,3.47
2022-08-04T03:54:23.158Z,3.33
2022-08-04T03:55:28.362Z,3.28
2022-08-04T03:56:32.222Z,3.45
2022-08-04T03:57:35.437Z,3.80
2022-08-04T03:58:40.850Z,4.05
2022-08-04T03:59:34.597Z,3.70
2022-08-04T04:00:09.229Z,3.28
2022-08-04T04:00:52.548Z,3.95
2022-08-04T04:02:02.700Z,3.67
2022-08-04T04:03:08.958Z,3.50
2022-08-04T04:04:06.212Z,3.65
2022-08-04T04:05:09.514Z,3.45
2022-08-04T04:06:12.292Z,3.75
2022-08-04T04:07:14.848Z,4.00
2022-08-04T04:08:24.540Z,3.50
2022-08-04T04:09:30.777Z,3.75
2022-08-04T04:10:46.742Z,3.85
2022-08-04T04:11:57.121Z,3.58
2022-08-04T04:13:06.880Z,3.67
2022-08-04T04:14:00.508Z,3.55
2022-08-04T04:14:54.986Z,3.53
2022-08-04T04:15:50.085Z,3.40
2022-08-04T04:16:47.393Z,3.88
2022-08-04T04:17:40.918Z,4.22
2022-08-04T04:18:38.459Z,3.92
2022-08-04T04:19:37.103Z,3.85
2022-08-04T04:20:54.377Z,4.00
2022-08-04T04:21:40.449Z,4.40
2022-08-04T04:22:24.658Z,3.75
2022-08-04T04:23:31.543Z,4.10
2022-08-04T04:24:34.170Z,3.63
2022-08-04T04:25:24.220Z,4.30
2022-08-04T04:26:06.493Z,3.45
2022-08-04T04:26:52.846Z,4.00
2022-08-04T04:27:51.150Z,4.35
2022-08-04T04:28:50.847Z,3.40
2022-08-04T04:29:38.184Z,3.45
2022-08-04T04:30:17.324Z,3.92
2022-08-04T04:31:02.408Z,4.05
2022-08-04T04:31:46.485Z,4.28
2022-08-04T04:32:24.728Z,4.00
2022-08-04T04:33:16.995Z,3.83
2022-08-04T04:33:59.546Z,3.55
2022-08-04T04:34:45.537Z,3.90
2022-08-04T04:35:30.171Z,3.40
2022-08-04T04:36:10.871Z,3.83
2022-08-04T04:37:02.464Z,3.67
2022-08-04T04:37:56.807Z,3.85
2022-08-04T04:38:42.967Z,3.60
2022-08-04T04:39:20.676Z,3.65
2022-08-04T04:40:05.629Z,3.85
2022-08-04T04:40:50.105Z,4.28
2022-08-04T04:41:36.886Z,3.60
2022-08-04T04:42:32.894Z,3.53
2022-08-04T04:43:51.120Z,3.58
2022-08-04T04:45:00.720Z,3.97
2022-08-04T04:45:41.248Z,3.90
2022-08-04T04:46:24.013Z,3.72
2022-08-04T04:47:04.805Z,3.47
2022-08-04T04:48:08.710Z,4.30
2022-08-04T04:48:49.542Z,3.78
2022-08-04T04:49:32.253Z,4.18
2022-08-04T04:50:09.789Z,4.05
2022-08-04T04:50:56.847Z,3.50
2022-08-04T04:51:37.719Z,3.92
2022-08-04T04:52:14.757Z,4.00
2022-08-04T04:52:54.441Z,4.05
2022-08-04T04:53:33.217Z,4.15
2022-08-04T04:54:11.204Z,3.85
2022-08-04T04:54:59.870Z,3.30
2022-08-04T04:55:39.183Z,4.03
2022-08-04T04:56:18.696Z,4.20
2022-08-04T04:56:58.554Z,3.90
2022-08-04T04:57:53.933Z,4.00
2022-08-04T04:58:31.357Z,3.60
2022-08-04T04:59:07.530Z,3.28
2022-08-04T04:59:47.603Z,4.20
2022-08-04T05:00:20.566Z,3.50
2022-08-04T05:01:17.538Z,3.83
2022-08-04T05:02:24.421Z,3.95
2022-08-04T05:03:16.407Z,4.32
2022-08-04T05:04:02.229Z,3.90
2022-08-04T05:05:07.749Z,3.50
2022-08-04T05:06:07.768Z,3.78
2022-08-04T05:06:59.294Z,4.07
2022-08-04T05:07:52.846Z,3.88
2022-08-04T05:08:54.045Z,3.97
2022-08-04T05:09:35.505Z,4.60
2022-08-04T05:10:23.506Z,4.45
2022-08-04T05:11:13.164Z,4.75
2022-08-04T05:12:59.174Z,4.80
2022-08-04T05:14:35.505Z,5.07
2022-08-04T05:14:38.677Z,5.03
2022-08-04T05:15:12.901Z,4.95
2022-08-04T05:15:48.144Z,5.43
2022-08-04T05:16:26.627Z,5.05
2022-08-04T05:17:03.710Z,4.68
2022-08-04T05:17:40.638Z,4.68
2022-08-04T05:18:18.694Z,4.07
2022-08-04T05:18:58.797Z,4.22
2022-08-04T05:19:41.562Z,4.05
2022-08-04T05:20:17.449Z,3.75
2022-08-04T05:20:55.533Z,4.25
2022-08-04T05:21:37.550Z,4.32
2022-08-04T05:22:15.017Z,4.15
2022-08-04T05:22:53.989Z,4.10
2022-08-04T05:23:29.875Z,4.10
2022-08-04T05:24:06.717Z,4.50
2022-08-04T05:24:44.549Z,4.53
2022-08-04T05:25:22.128Z,4.50
2022-08-04T05:26:00.291Z,4.50
2022-08-04T05:26:37.469Z,4.38
2022-08-04T05:27:16.546Z,4.45
2022-08-04T05:27:53.635Z,5.70
2022-08-04T05:28:29.344Z,6.47
2022-08-04T05:29:07.347Z,4.90
2022-08-04T05:29:50.249Z,4.05
2022-08-04T05:30:25.292Z,4.25
2022-08-04T05:31:01.518Z,5.20
2022-08-04T05:31:37.405Z,5.03
2022-08-04T05:32:14.207Z,4.95
2022-08-04T05:32:50.593Z,5.25
2022-08-04T05:33:29.967Z,4.75
2022-08-04T05:34:07.220Z,4.05
2022-08-04T05:34:42.380Z,4.85
2022-08-04T05:35:56.584Z,4.82
2022-08-04T05:36:39.528Z,4.10
2022-08-04T05:37:18.250Z,4.45
2022-08-04T05:38:01.586Z,4.15
2022-08-04T05:38:38.253Z,4.25
2022-08-04T05:39:14.315Z,4.30
2022-08-04T05:39:53.177Z,4.93
2022-08-04T05:40:26.675Z,4.45
2022-08-04T05:40:59.278Z,3.97
2022-08-04T05:41:45.545Z,4.30
2022-08-04T05:42:18.325Z,3.85
2022-08-04T05:42:52.665Z,4.57
2022-08-04T05:43:25.039Z,4.00
2022-08-04T05:43:57.947Z,16.20
2022-08-04T05:44:31.823Z,10.48
2022-08-04T05:45:05.371Z,10.82
2022-08-04T05:45:39.061Z,9.68
2022-08-04T05:46:13.738Z,57.30
2022-08-04T05:46:53.940Z,43.00
2022-08-04T05:47:30.427Z,40.88
2022-08-04T05:48:03.393Z,31.35
2022-08-04T05:48:36.292Z,37.40
2022-08-04T05:49:10.866Z,22.63
2022-08-04T05:49:55.575Z,16.27
2022-08-04T05:50:34.693Z,10.20
2022-08-04T05:51:10.762Z,7.57
2022-08-04T05:51:43.760Z,5.28
2022-08-04T05:52:20.880Z,5.30
2022-08-04T05:52:53.719Z,4.88
2022-08-04T05:53:34.467Z,5.38
2022-08-04T05:54:08.191Z,5.00
2022-08-04T05:54:41.237Z,4.88
2022-08-04T05:55:13.564Z,5.15
2022-08-04T05:56:07.752Z,4.75
2022-08-04T05:56:40.369Z,5.05
2022-08-04T05:57:13.876Z,5.00
2022-08-04T05:57:50.797Z,5.85
2022-08-04T05:58:25.453Z,24.65
2022-08-04T05:58:59.254Z,15.00
2022-08-04T05:59:32.314Z,24.83
2022-08-04T06:00:31.755Z,74.25
2022-08-04T06:01:02.006Z,31.25
2022-08-04T06:01:36.424Z,22.13
2022-08-04T06:02:30.338Z,18.10
2022-08-04T06:03:03.535Z,9.10
2022-08-04T06:03:37.356Z,7.47
2022-08-04T06:04:09.634Z,7.18
2022-08-04T06:04:48.124Z,6.00
2022-08-04T06:05:20.489Z,5.85
2022-08-04T06:05:54.086Z,4.10
2022-08-04T06:06:28.019Z,5.00
2022-08-04T06:07:01.989Z,5.75
2022-08-04T06:07:35.295Z,5.00
2022-08-04T06:08:28.872Z,5.20
2022-08-04T06:09:00.825Z,4.57
2022-08-04T06:09:33.124Z,4.38
2022-08-04T06:10:07.943Z,4.20
2022-08-04T06:10:41.883Z,4.40
2022-08-04T06:11:16.515Z,4.40
2022-08-04T06:12:01.769Z,4.20
2022-08-04T06:12:41.918Z,4.78
2022-08-04T06:13:49.120Z,4.05
2022-08-04T06:14:13.976Z,4.75
2022-08-04T06:14:49.713Z,4.07
2022-08-04T06:15:25.196Z,5.35
2022-08-04T06:16:00.297Z,4.55
2022-08-04T06:16:37.617Z,5.00
2022-08-04T06:18:32.224Z,4.65
2022-08-04T06:19:58.816Z,4.43
2022-08-04T06:20:02.429Z,4.40
2022-08-04T06:20:19.651Z,4.65
2022-08-04T06:20:54.898Z,4.15
2022-08-04T06:21:29.802Z,4.60
2022-08-04T06:22:04.726Z,4.25
2022-08-04T06:22:42.510Z,4.90
2022-08-04T06:23:16.662Z,4.30
2022-08-04T06:23:57.464Z,3.67
2022-08-04T06:24:38.663Z,4.95
2022-08-04T06:25:22.606Z,4.47
2022-08-04T06:25:59.702Z,3.95
2022-08-04T06:26:34.624Z,3.95
2022-08-04T06:27:08.964Z,3.60
2022-08-04T06:27:42.079Z,4.60
2022-08-04T06:28:15.405Z,4.18
2022-08-04T06:28:51.083Z,3.75
2022-08-04T06:29:30.701Z,4.13
2022-08-04T06:30:07.010Z,3.63
2022-08-04T06:30:41.071Z,3.95
2022-08-04T06:32:27.669Z,4.40
2022-08-04T06:32:31.125Z,4.10
2022-08-04T06:33:24.307Z,4.18
2022-08-04T06:33:56.364Z,4.63
2022-08-04T06:34:30.030Z,3.80
2022-08-04T06:35:05.775Z,3.45
2022-08-04T06:35:38.100Z,3.83
2022-08-04T06:36:12.131Z,3.88
2022-08-04T06:36:45.361Z,3.85
2022-08-04T06:37:24.137Z,3.63
2022-08-04T06:38:13.563Z,11.43
2022-08-04T06:38:45.924Z,14.95
2022-08-04T06:39:18.696Z,12.57
2022-08-04T06:39:52.964Z,11.95
2022-08-04T06:40:31.813Z,9.07
2022-08-04T06:41:09.280Z,12.65
2022-08-04T06:42:17.483Z,8.57
2022-08-04T06:42:33.973Z,10.75
2022-08-04T06:43:08.526Z,14.68
2022-08-04T06:43:42.977Z,12.25
2022-08-04T06:44:16.170Z,18.17
2022-08-04T06:44:52.073Z,11.63
2022-08-04T06:45:25.070Z,9.02
2022-08-04T06:46:02.158Z,6.80
2022-08-04T06:46:37.050Z,5.95
2022-08-04T06:47:10.871Z,6.38
2022-08-04T06:47:48.520Z,5.40
2022-08-04T06:48:21.614Z,5.20
2022-08-04T06:49:05.481Z,5.90
2022-08-04T06:49:55.239Z,6.20
2022-08-04T06:51:32.149Z,5.50
2022-08-04T06:51:36.186Z,5.35
2022-08-04T06:52:17.297Z,4.20
2022-08-04T06:52:50.202Z,6.43
2022-08-04T06:53:24.159Z,8.32
2022-08-04T06:53:56.091Z,8.73
2022-08-04T06:54:28.931Z,12.52
2022-08-04T06:55:01.261Z,9.77
2022-08-04T06:55:34.304Z,6.13
2022-08-04T06:56:08.605Z,5.90
2022-08-04T06:56:43.278Z,4.65
2022-08-04T06:57:17.607Z,5.05
2022-08-04T06:57:50.520Z,7.07
2022-08-04T06:58:23.420Z,6.60
2022-08-04T06:58:55.975Z,7.13
2022-08-04T06:59:30.406Z,5.90
2022-08-04T07:00:05.906Z,6.43
2022-08-04T07:00:39.413Z,5.65
2022-08-04T07:01:13.936Z,5.32
2022-08-04T07:01:47.224Z,4.97
2022-08-04T07:02:25.607Z,5.05
2022-08-04T07:02:59.448Z,4.30
2022-08-04T07:03:32.003Z,4.40
2022-08-04T07:04:04.643Z,4.53
2022-08-04T07:04:37.463Z,6.50
2022-08-04T07:05:11.526Z,6.60
2022-08-04T07:05:46.165Z,6.25
2022-08-04T07:06:19.916Z,5.10
2022-08-04T07:06:51.798Z,4.68
2022-08-04T07:07:36.652Z,4.72
2022-08-04T07:08:17.962Z,5.15
2022-08-04T07:08:51.915Z,6.47
2022-08-04T07:09:24.866Z,5.90
2022-08-04T07:09:56.814Z,5.03
2022-08-04T07:10:30.798Z,4.13
2022-08-04T07:11:03.240Z,4.10
2022-08-04T07:11:39.150Z,4.43
2022-08-04T07:12:20.226Z,4.13
2022-08-04T07:12:53.859Z,3.83
2022-08-04T07:13:28.484Z,6.50
2022-08-04T07:14:00.814Z,6.72
2022-08-04T07:14:36.005Z,6.30
2022-08-04T07:15:09.292Z,4.93
2022-08-04T07:15:47.449Z,4.80
2022-08-04T07:16:30.990Z,5.43
2022-08-04T07:17:04.932Z,4.03
2022-08-04T07:17:37.807Z,5.25
2022-08-04T07:18:10.667Z,4.35
2022-08-04T07:18:42.689Z,4.32
2022-08-04T07:19:18.779Z,4.72
2022-08-04T07:19:53.052Z,5.50
2022-08-04T07:20:33.823Z,4.90
2022-08-04T07:21:08.984Z,4.25
2022-08-04T07:21:41.028Z,5.43
2022-08-04T07:22:34.201Z,4.50
2022-08-04T07:23:07.490Z,4.20
2022-08-04T07:23:39.711Z,3.33
2022-08-04T07:24:12.960Z,5.68
2022-08-04T07:24:46.547Z,4.68
2022-08-04T07:25:18.858Z,4.13
2022-08-04T07:25:59.652Z,4.05
2022-08-04T07:26:44.838Z,3.83
2022-08-04T07:27:17.605Z,3.92
2022-08-04T07:28:09.495Z,3.70
2022-08-04T07:28:42.556Z,4.25
2022-08-04T07:29:15.588Z,4.18
2022-08-04T07:29:49.606Z,3.95
2022-08-04T07:30:24.885Z,3.55
2022-08-04T07:30:59.293Z,3.85
2022-08-04T07:31:35.235Z,3.88
2022-08-04T07:32:10.896Z,3.80
2022-08-04T07:32:46.079Z,3.85
2022-08-04T07:33:18.945Z,3.83
2022-08-04T07:34:17.302Z,4.45
2022-08-04T07:34:49.746Z,3.90
2022-08-04T07:36:10.583Z,4.00
2022-08-04T07:36:16.397Z,3.70
2022-08-04T07:36:50.233Z,3.90
2022-08-04T07:37:23.587Z,3.95
2022-08-04T07:38:11.917Z,3.10
2022-08-04T07:38:48.234Z,4.15
2022-08-04T07:39:29.423Z,3.63
2022-08-04T07:40:02.072Z,3.58
2022-08-04T07:40:36.202Z,3.70
2022-08-04T07:42:02.768Z,4.25
2022-08-04T07:42:35.338Z,3.95
2022-08-04T07:43:08.521Z,3.70
2022-08-04T07:43:41.658Z,4.13
2022-08-04T07:44:14.865Z,3.78
2022-08-04T07:44:48.042Z,3.63
2022-08-04T07:45:21.358Z,4.00
2022-08-04T07:45:54.393Z,4.10
2022-08-04T07:46:27.484Z,4.15
2022-08-04T07:47:06.710Z,3.78
2022-08-04T07:47:40.357Z,3.90
2022-08-04T07:48:33.205Z,4.18
2022-08-04T07:49:06.101Z,3.60
2022-08-04T07:49:55.446Z,3.95
2022-08-04T07:50:30.102Z,4.80
2022-08-04T07:51:03.436Z,4.07
2022-08-04T07:51:39.613Z,4.20
2022-08-04T07:52:12.875Z,4.38
2022-08-04T07:52:58.540Z,3.85
2022-08-04T07:53:54.214Z,3.00
2022-08-04T07:54:29.815Z,4.00
2022-08-04T07:55:03.329Z,4.78
2022-08-04T07:55:35.134Z,4.03
2022-08-04T07:56:07.256Z,3.42
2022-08-04T07:56:42.167Z,4.30
2022-08-04T07:57:19.029Z,4.35
2022-08-04T07:57:51.209Z,4.75
2022-08-04T07:58:26.523Z,3.97
2022-08-04T07:59:00.855Z,4.13
2022-08-04T07:59:34.024Z,4.15
2022-08-04T08:00:07.896Z,4.55
2022-08-04T08:00:39.886Z,4.78
2022-08-04T08:01:13.283Z,4.18
2022-08-04T08:01:46.606Z,4.10
2022-08-04T08:02:20.318Z,3.65
2022-08-04T08:02:55.872Z,4.63
2022-08-04T08:03:28.077Z,4.40
2022-08-04T08:04:01.590Z,4.20
2022-08-04T08:04:35.206Z,3.65
2022-08-04T08:05:10.023Z,3.85
2022-08-04T08:06:16.519Z,4.28
2022-08-04T08:06:42.652Z,3.70
2022-08-04T08:07:15.165Z,4.72
2022-08-04T08:07:50.613Z,4.40
2022-08-04T08:08:26.613Z,4.35
2022-08-04T08:09:00.920Z,4.10
2022-08-04T08:09:46.138Z,4.00
2022-08-04T08:10:19.508Z,4.47
2022-08-04T08:10:51.800Z,4.78
2022-08-04T08:11:24.925Z,3.55
2022-08-04T08:12:36.576Z,3.80
2022-08-04T08:13:10.206Z,3.40
2022-08-04T08:13:43.725Z,3.90
2022-08-04T08:14:16.503Z,3.60
2022-08-04T08:14:49.851Z,2.85
2022-08-04T08:15:22.409Z,3.70
2022-08-04T08:15:55.717Z,3.95
2022-08-04T08:16:28.477Z,4.18
2022-08-04T08:17:02.684Z,4.25
2022-08-04T08:17:59.129Z,3.67
2022-08-04T08:18:27.913Z,4.10
2022-08-04T08:19:00.696Z,4.40
2022-08-04T08:19:34.561Z,4.45
2022-08-04T08:20:09.084Z,3.35
2022-08-04T08:20:45.762Z,3.90
2022-08-04T08:21:21.452Z,3.55
2022-08-04T08:21:59.325Z,3.80
2022-08-04T08:22:33.385Z,4.50
2022-08-04T08:23:08.050Z,3.60
2022-08-04T08:23:40.515Z,3.83
2022-08-04T08:24:13.915Z,3.63
2022-08-04T08:24:47.194Z,4.13
2022-08-04T08:25:20.203Z,4.72
2022-08-04T08:25:52.721Z,3.40
2022-08-04T08:26:26.213Z,4.72
2022-08-04T08:27:01.770Z,3.60
2022-08-04T08:27:34.945Z,3.67
2022-08-04T08:28:08.323Z,3.70
2022-08-04T08:28:40.476Z,4.22
2022-08-04T08:29:16.029Z,3.70
2022-08-04T08:29:48.454Z,4.10
2022-08-04T08:30:20.385Z,4.10
2022-08-04T08:30:53.321Z,3.35
2022-08-04T08:31:55.940Z,3.67
2022-08-04T08:32:18.069Z,3.63
2022-08-04T08:32:50.500Z,5.28
2022-08-04T08:33:23.882Z,6.40
2022-08-04T08:33:56.823Z,5.20
2022-08-04T08:34:29.790Z,4.75
2022-08-04T08:35:02.893Z,4.95
2022-08-04T08:35:53.882Z,3.92
2022-08-04T08:36:33.822Z,4.25
2022-08-04T08:37:13.530Z,3.80
2022-08-04T08:37:54.914Z,3.53
2022-08-04T08:38:38.522Z,4.00
2022-08-04T08:39:16.142Z,4.45
2022-08-04T08:39:55.900Z,3.53
2022-08-04T08:40:48.333Z,3.53
2022-08-04T08:41:44.802Z,3.45
2022-08-04T08:42:48.695Z,4.57
2022-08-04T08:44:06.394Z,3.80
2022-08-04T08:44:58.221Z,3.60
2022-08-04T08:46:07.916Z,3.50
2022-08-04T08:46:53.747Z,3.20
2022-08-04T08:48:04.586Z,3.10
2022-08-04T08:48:55.471Z,3.78
2022-08-04T08:50:00.677Z,3.55
2022-08-04T08:50:54.590Z,3.83
2022-08-04T08:51:48.104Z,3.10
2022-08-04T08:53:00.685Z,3.15
2022-08-04T08:53:49.527Z,3.30
2022-08-04T08:54:59.844Z,3.42
2022-08-04T08:55:49.795Z,3.55
2022-08-04T08:56:34.859Z,3.55
2022-08-04T08:57:24.224Z,4.38
2022-08-04T08:58:11.368Z,3.47
2022-08-04T08:58:57.798Z,3.33
2022-08-04T08:59:46.258Z,3.60
2022-08-04T09:00:23.969Z,3.78
2022-08-04T09:01:17.324Z,3.60
2022-08-04T09:02:15.353Z,2.85
2022-08-04T09:03:18.366Z,4.10
2022-08-04T09:04:28.845Z,3.55
2022-08-04T09:05:25.283Z,3.20
2022-08-04T09:06:15.164Z,3.65
2022-08-04T09:07:00.699Z,4.13
2022-08-04T09:07:50.770Z,4.13
2022-08-04T09:08:51.592Z,3.05
2022-08-04T09:09:49.355Z,2.78
2022-08-04T09:10:33.044Z,3.42
2022-08-04T09:11:12.405Z,2.97
2022-08-04T09:11:52.354Z,3.67
2022-08-04T09:12:31.166Z,3.53
2022-08-04T09:13:13.398Z,3.08
2022-08-04T09:13:52.241Z,3.50
2022-08-04T09:14:33.480Z,3.28
2022-08-04T09:15:14.632Z,3.00
2022-08-04T09:15:54.584Z,3.83
2022-08-04T09:16:41.698Z,3.33
2022-08-04T09:17:21.877Z,4.68
2022-08-04T09:18:00.093Z,7.53
2022-08-04T09:18:37.669Z,13.52
2022-08-04T09:19:37.426Z,10.45
2022-08-04T09:20:17.440Z,7.25
2022-08-04T09:20:55.140Z,5.85
2022-08-04T09:21:51.369Z,5.25
2022-08-04T09:22:33.967Z,3.40
2022-08-04T09:23:20.250Z,3.63
2022-08-04T09:24:04.387Z,3.78
2022-08-04T09:25:04.629Z,3.55